sensor_id;sensor_type;location;lat;lon;timestamp;P1;durP1;ratioP1;P2;durP2;ratioP2
14923;SDS011;7554;43.600;1.480;2022-12-29T00:00:20;30.03;;;18.30;;
14923;SDS011;7554;43.600;1.480;2022-12-29T00:02:48;30.20;;;18.50;;
14923;SDS011;7554;43.600;1.480;2022-12-29T00:05:15;28.43;;;18.23;;
14923;SDS011;7554;43.600;1.480;2022-12-29T00:07:44;26.43;;;18.23;;
14923;SDS011;7554;43.600;1.480;2022-12-29T00:10:11;29.53;;;17.73;;
14923;SDS011;7554;43.600;1.480;2022-12-29T00:12:39;27.13;;;17.70;;
14923;SDS011;7554;43.600;1.480;2022-12-29T00:15:24;30.30;;;17.83;;
14923;SDS011;7554;43.600;1.480;2022-12-29T00:18:03;28.33;;;17.23;;
14923;SDS011;7554;43.600;1.480;2022-12-29T00:20:32;25.63;;;17.40;;
14923;SDS011;7554;43.600;1.480;2022-12-29T00:23:19;29.60;;;17.80;;
14923;SDS011;7554;43.600;1.480;2022-12-29T00:26:05;26.93;;;17.77;;
14923;SDS011;7554;43.600;1.480;2022-12-29T00:28:56;22.70;;;16.53;;
14923;SDS011;7554;43.600;1.480;2022-12-29T00:31:41;26.47;;;17.17;;
14923;SDS011;7554;43.600;1.480;2022-12-29T00:34:25;28.03;;;17.53;;
14923;SDS011;7554;43.600;1.480;2022-12-29T00:37:10;22.43;;;16.03;;
14923;SDS011;7554;43.600;1.480;2022-12-29T00:39:41;23.23;;;16.47;;
14923;SDS011;7554;43.600;1.480;2022-12-29T00:42:26;22.47;;;14.87;;
14923;SDS011;7554;43.600;1.480;2022-12-29T00:45:13;27.80;;;15.73;;
14923;SDS011;7554;43.600;1.480;2022-12-29T00:47:41;21.43;;;15.80;;
14923;SDS011;7554;43.600;1.480;2022-12-29T00:50:08;20.60;;;14.93;;
14923;SDS011;7554;43.600;1.480;2022-12-29T00:52:35;26.27;;;15.73;;
14923;SDS011;7554;43.600;1.480;2022-12-29T00:55:04;21.37;;;15.07;;
14923;SDS011;7554;43.600;1.480;2022-12-29T00:57:32;23.53;;;15.17;;
14923;SDS011;7554;43.600;1.480;2022-12-29T00:59:59;21.97;;;14.60;;
14923;SDS011;7554;43.600;1.480;2022-12-29T01:02:28;20.53;;;14.90;;
14923;SDS011;7554;43.600;1.480;2022-12-29T01:04:55;22.17;;;14.53;;
14923;SDS011;7554;43.600;1.480;2022-12-29T01:07:23;22.33;;;14.60;;
14923;SDS011;7554;43.600;1.480;2022-12-29T01:09:50;20.43;;;14.80;;
14923;SDS011;7554;43.600;1.480;2022-12-29T01:12:36;21.30;;;14.80;;
14923;SDS011;7554;43.600;1.480;2022-12-29T01:15:07;19.67;;;13.67;;
14923;SDS011;7554;43.600;1.480;2022-12-29T01:17:36;20.30;;;14.40;;
14923;SDS011;7554;43.600;1.480;2022-12-29T01:20:04;21.70;;;14.03;;
14923;SDS011;7554;43.600;1.480;2022-12-29T01:22:32;19.90;;;13.53;;
14923;SDS011;7554;43.600;1.480;2022-12-29T01:25:00;25.40;;;14.23;;
14923;SDS011;7554;43.600;1.480;2022-12-29T01:27:27;22.80;;;13.83;;
14923;SDS011;7554;43.600;1.480;2022-12-29T01:29:56;18.03;;;13.43;;
14923;SDS011;7554;43.600;1.480;2022-12-29T01:32:23;20.50;;;13.30;;
14923;SDS011;7554;43.600;1.480;2022-12-29T01:34:51;23.13;;;13.77;;
14923;SDS011;7554;43.600;1.480;2022-12-29T01:37:18;19.40;;;12.97;;
14923;SDS011;7554;43.600;1.480;2022-12-29T01:39:46;20.07;;;12.97;;
14923;SDS011;7554;43.600;1.480;2022-12-29T01:42:14;19.87;;;13.37;;
14923;SDS011;7554;43.600;1.480;2022-12-29T01:44:48;16.43;;;11.90;;
14923;SDS011;7554;43.600;1.480;2022-12-29T01:47:33;20.57;;;12.33;;
14923;SDS011;7554;43.600;1.480;2022-12-29T01:50:05;19.03;;;13.17;;
14923;SDS011;7554;43.600;1.480;2022-12-29T01:52:37;17.57;;;11.87;;
14923;SDS011;7554;43.600;1.480;2022-12-29T01:55:09;16.63;;;11.47;;
14923;SDS011;7554;43.600;1.480;2022-12-29T01:57:39;19.73;;;12.90;;
14923;SDS011;7554;43.600;1.480;2022-12-29T02:00:11;21.63;;;12.80;;
14923;SDS011;7554;43.600;1.480;2022-12-29T02:02:41;19.53;;;12.53;;
14923;SDS011;7554;43.600;1.480;2022-12-29T02:05:14;19.47;;;12.10;;
14923;SDS011;7554;43.600;1.480;2022-12-29T02:07:46;17.10;;;11.83;;
14923;SDS011;7554;43.600;1.480;2022-12-29T02:10:15;25.27;;;12.90;;
14923;SDS011;7554;43.600;1.480;2022-12-29T02:12:42;20.37;;;12.03;;
14923;SDS011;7554;43.600;1.480;2022-12-29T02:15:11;18.57;;;11.67;;
14923;SDS011;7554;43.600;1.480;2022-12-29T02:17:53;17.20;;;11.70;;
14923;SDS011;7554;43.600;1.480;2022-12-29T02:23:46;18.43;;;12.50;;
14923;SDS011;7554;43.600;1.480;2022-12-29T02:26:38;18.50;;;12.07;;
14923;SDS011;7554;43.600;1.480;2022-12-29T02:29:30;17.17;;;12.20;;
14923;SDS011;7554;43.600;1.480;2022-12-29T02:32:24;20.87;;;12.77;;
14923;SDS011;7554;43.600;1.480;2022-12-29T02:35:01;19.47;;;12.97;;
14923;SDS011;7554;43.600;1.480;2022-12-29T02:37:38;20.43;;;13.47;;
14923;SDS011;7554;43.600;1.480;2022-12-29T02:40:12;24.73;;;13.10;;
14923;SDS011;7554;43.600;1.480;2022-12-29T02:42:50;20.43;;;13.50;;
14923;SDS011;7554;43.600;1.480;2022-12-29T02:45:26;18.97;;;12.83;;
14923;SDS011;7554;43.600;1.480;2022-12-29T02:48:00;20.67;;;13.87;;
14923;SDS011;7554;43.600;1.480;2022-12-29T02:50:36;19.83;;;14.00;;
14923;SDS011;7554;43.600;1.480;2022-12-29T02:53:06;20.43;;;13.23;;
14923;SDS011;7554;43.600;1.480;2022-12-29T02:55:37;20.03;;;13.63;;
14923;SDS011;7554;43.600;1.480;2022-12-29T02:58:15;21.67;;;13.40;;
14923;SDS011;7554;43.600;1.480;2022-12-29T03:00:48;20.77;;;13.70;;
14923;SDS011;7554;43.600;1.480;2022-12-29T03:03:35;24.33;;;13.60;;
14923;SDS011;7554;43.600;1.480;2022-12-29T03:06:15;22.53;;;13.30;;
14923;SDS011;7554;43.600;1.480;2022-12-29T03:08:59;23.30;;;14.33;;
14923;SDS011;7554;43.600;1.480;2022-12-29T03:11:37;22.97;;;13.87;;
14923;SDS011;7554;43.600;1.480;2022-12-29T03:14:31;21.97;;;13.80;;
14923;SDS011;7554;43.600;1.480;2022-12-29T03:17:20;21.47;;;12.50;;
14923;SDS011;7554;43.600;1.480;2022-12-29T03:19:56;23.70;;;13.77;;
14923;SDS011;7554;43.600;1.480;2022-12-29T03:22:31;23.43;;;14.00;;
14923;SDS011;7554;43.600;1.480;2022-12-29T03:25:06;24.33;;;13.93;;
14923;SDS011;7554;43.600;1.480;2022-12-29T03:27:39;22.63;;;13.90;;
14923;SDS011;7554;43.600;1.480;2022-12-29T03:30:09;24.33;;;13.73;;
14923;SDS011;7554;43.600;1.480;2022-12-29T03:32:39;22.40;;;14.27;;
14923;SDS011;7554;43.600;1.480;2022-12-29T03:35:12;24.87;;;14.00;;
14923;SDS011;7554;43.600;1.480;2022-12-29T03:37:43;27.67;;;13.60;;
14923;SDS011;7554;43.600;1.480;2022-12-29T03:40:16;24.73;;;12.63;;
14923;SDS011;7554;43.600;1.480;2022-12-29T03:42:45;21.77;;;13.00;;
14923;SDS011;7554;43.600;1.480;2022-12-29T03:45:14;26.23;;;13.00;;
14923;SDS011;7554;43.600;1.480;2022-12-29T03:47:42;23.97;;;11.97;;
14923;SDS011;7554;43.600;1.480;2022-12-29T03:50:12;20.03;;;12.13;;
14923;SDS011;7554;43.600;1.480;2022-12-29T03:52:40;24.10;;;12.10;;
14923;SDS011;7554;43.600;1.480;2022-12-29T03:55:08;25.17;;;12.70;;
14923;SDS011;7554;43.600;1.480;2022-12-29T03:57:36;20.67;;;11.57;;
14923;SDS011;7554;43.600;1.480;2022-12-29T04:00:04;22.93;;;12.23;;
14923;SDS011;7554;43.600;1.480;2022-12-29T04:02:33;22.00;;;12.13;;
14923;SDS011;7554;43.600;1.480;2022-12-29T04:05:00;20.13;;;12.47;;
14923;SDS011;7554;43.600;1.480;2022-12-29T04:07:29;20.20;;;12.50;;
14923;SDS011;7554;43.600;1.480;2022-12-29T04:09:57;17.53;;;11.03;;
14923;SDS011;7554;43.600;1.480;2022-12-29T04:12:24;22.30;;;12.07;;
14923;SDS011;7554;43.600;1.480;2022-12-29T04:14:51;24.13;;;11.50;;
14923;SDS011;7554;43.600;1.480;2022-12-29T04:17:19;20.27;;;11.70;;
14923;SDS011;7554;43.600;1.480;2022-12-29T04:19:46;20.63;;;11.57;;
14923;SDS011;7554;43.600;1.480;2022-12-29T04:22:14;21.67;;;11.30;;
14923;SDS011;7554;43.600;1.480;2022-12-29T04:24:43;18.80;;;10.50;;
14923;SDS011;7554;43.600;1.480;2022-12-29T04:27:11;24.87;;;11.53;;
14923;SDS011;7554;43.600;1.480;2022-12-29T04:29:38;19.37;;;11.77;;
14923;SDS011;7554;43.600;1.480;2022-12-29T04:32:06;20.73;;;11.67;;
14923;SDS011;7554;43.600;1.480;2022-12-29T04:34:33;18.80;;;11.17;;
14923;SDS011;7554;43.600;1.480;2022-12-29T04:37:00;27.17;;;11.77;;
14923;SDS011;7554;43.600;1.480;2022-12-29T04:39:28;19.27;;;10.80;;
14923;SDS011;7554;43.600;1.480;2022-12-29T04:41:57;19.10;;;10.93;;
14923;SDS011;7554;43.600;1.480;2022-12-29T04:44:24;13.30;;;8.30;;
14923;SDS011;7554;43.600;1.480;2022-12-29T04:46:52;19.80;;;10.93;;
14923;SDS011;7554;43.600;1.480;2022-12-29T04:49:19;16.60;;;10.53;;
14923;SDS011;7554;43.600;1.480;2022-12-29T04:51:47;19.63;;;10.97;;
14923;SDS011;7554;43.600;1.480;2022-12-29T04:54:14;23.13;;;10.43;;
14923;SDS011;7554;43.600;1.480;2022-12-29T04:56:42;17.50;;;10.87;;
14923;SDS011;7554;43.600;1.480;2022-12-29T04:59:11;18.63;;;10.77;;
14923;SDS011;7554;43.600;1.480;2022-12-29T05:01:38;19.13;;;9.70;;
14923;SDS011;7554;43.600;1.480;2022-12-29T05:04:07;16.70;;;10.97;;
14923;SDS011;7554;43.600;1.480;2022-12-29T05:06:34;17.63;;;11.07;;
14923;SDS011;7554;43.600;1.480;2022-12-29T05:09:02;19.40;;;11.30;;
14923;SDS011;7554;43.600;1.480;2022-12-29T05:11:29;17.20;;;10.47;;
14923;SDS011;7554;43.600;1.480;2022-12-29T05:13:57;19.33;;;10.77;;
14923;SDS011;7554;43.600;1.480;2022-12-29T05:16:26;17.33;;;10.43;;
14923;SDS011;7554;43.600;1.480;2022-12-29T05:18:53;15.57;;;10.27;;
14923;SDS011;7554;43.600;1.480;2022-12-29T05:21:21;18.20;;;11.13;;
14923;SDS011;7554;43.600;1.480;2022-12-29T05:23:48;16.07;;;10.90;;
14923;SDS011;7554;43.600;1.480;2022-12-29T05:26:16;15.87;;;10.10;;
14923;SDS011;7554;43.600;1.480;2022-12-29T05:28:43;22.73;;;10.73;;
14923;SDS011;7554;43.600;1.480;2022-12-29T05:31:10;18.87;;;10.83;;
14923;SDS011;7554;43.600;1.480;2022-12-29T05:33:39;17.70;;;11.20;;
14923;SDS011;7554;43.600;1.480;2022-12-29T05:36:07;15.93;;;11.20;;
14923;SDS011;7554;43.600;1.480;2022-12-29T05:38:36;20.07;;;10.97;;
14923;SDS011;7554;43.600;1.480;2022-12-29T05:41:03;19.93;;;11.97;;
14923;SDS011;7554;43.600;1.480;2022-12-29T05:43:31;19.53;;;11.20;;
14923;SDS011;7554;43.600;1.480;2022-12-29T05:45:59;19.50;;;12.00;;
14923;SDS011;7554;43.600;1.480;2022-12-29T05:48:26;30.53;;;12.07;;
14923;SDS011;7554;43.600;1.480;2022-12-29T05:50:55;23.07;;;12.30;;
14923;SDS011;7554;43.600;1.480;2022-12-29T05:53:22;22.93;;;11.53;;
14923;SDS011;7554;43.600;1.480;2022-12-29T05:55:50;22.40;;;11.93;;
14923;SDS011;7554;43.600;1.480;2022-12-29T05:58:17;21.37;;;12.43;;
14923;SDS011;7554;43.600;1.480;2022-12-29T06:00:45;22.93;;;11.83;;
14923;SDS011;7554;43.600;1.480;2022-12-29T06:03:12;19.37;;;11.90;;
14923;SDS011;7554;43.600;1.480;2022-12-29T06:05:40;21.90;;;12.00;;
14923;SDS011;7554;43.600;1.480;2022-12-29T06:08:09;20.47;;;12.70;;
14923;SDS011;7554;43.600;1.480;2022-12-29T06:10:36;21.77;;;11.90;;
14923;SDS011;7554;43.600;1.480;2022-12-29T06:13:03;23.63;;;12.27;;
14923;SDS011;7554;43.600;1.480;2022-12-29T06:15:32;25.80;;;12.33;;
14923;SDS011;7554;43.600;1.480;2022-12-29T06:17:59;22.90;;;12.67;;
14923;SDS011;7554;43.600;1.480;2022-12-29T06:20:27;22.03;;;12.20;;
14923;SDS011;7554;43.600;1.480;2022-12-29T06:22:54;23.40;;;12.37;;
14923;SDS011;7554;43.600;1.480;2022-12-29T06:25:24;19.60;;;12.30;;
14923;SDS011;7554;43.600;1.480;2022-12-29T06:27:51;22.87;;;11.80;;
14923;SDS011;7554;43.600;1.480;2022-12-29T06:30:19;22.10;;;12.23;;
14923;SDS011;7554;43.600;1.480;2022-12-29T06:32:46;22.70;;;11.03;;
14923;SDS011;7554;43.600;1.480;2022-12-29T06:35:14;23.43;;;12.40;;
14923;SDS011;7554;43.600;1.480;2022-12-29T06:37:41;24.67;;;13.47;;
14923;SDS011;7554;43.600;1.480;2022-12-29T06:40:09;22.40;;;13.00;;
14923;SDS011;7554;43.600;1.480;2022-12-29T06:42:39;21.57;;;12.67;;
14923;SDS011;7554;43.600;1.480;2022-12-29T06:45:06;21.30;;;13.20;;
14923;SDS011;7554;43.600;1.480;2022-12-29T06:47:34;23.67;;;13.40;;
14923;SDS011;7554;43.600;1.480;2022-12-29T06:50:02;25.87;;;12.83;;
14923;SDS011;7554;43.600;1.480;2022-12-29T06:52:30;21.80;;;13.03;;
14923;SDS011;7554;43.600;1.480;2022-12-29T06:54:58;25.93;;;13.30;;
14923;SDS011;7554;43.600;1.480;2022-12-29T06:57:26;20.40;;;11.77;;
14923;SDS011;7554;43.600;1.480;2022-12-29T06:59:55;24.20;;;12.97;;
14923;SDS011;7554;43.600;1.480;2022-12-29T07:02:22;21.63;;;12.90;;
14923;SDS011;7554;43.600;1.480;2022-12-29T07:04:50;22.80;;;13.40;;
14923;SDS011;7554;43.600;1.480;2022-12-29T07:07:18;24.07;;;13.00;;
14923;SDS011;7554;43.600;1.480;2022-12-29T07:09:46;22.50;;;13.03;;
14923;SDS011;7554;43.600;1.480;2022-12-29T07:12:13;23.50;;;13.23;;
14923;SDS011;7554;43.600;1.480;2022-12-29T07:14:41;25.53;;;14.13;;
14923;SDS011;7554;43.600;1.480;2022-12-29T07:17:10;26.83;;;13.97;;
14923;SDS011;7554;43.600;1.480;2022-12-29T07:19:37;20.87;;;13.27;;
14923;SDS011;7554;43.600;1.480;2022-12-29T07:22:05;24.27;;;13.13;;
14923;SDS011;7554;43.600;1.480;2022-12-29T07:24:33;27.60;;;14.37;;
14923;SDS011;7554;43.600;1.480;2022-12-29T07:27:00;25.27;;;13.67;;
14923;SDS011;7554;43.600;1.480;2022-12-29T07:29:27;22.93;;;13.37;;
14923;SDS011;7554;43.600;1.480;2022-12-29T07:31:55;23.03;;;13.73;;
14923;SDS011;7554;43.600;1.480;2022-12-29T07:34:24;26.80;;;13.73;;
14923;SDS011;7554;43.600;1.480;2022-12-29T07:36:52;23.27;;;13.83;;
14923;SDS011;7554;43.600;1.480;2022-12-29T07:39:19;21.23;;;13.43;;
14923;SDS011;7554;43.600;1.480;2022-12-29T07:41:47;28.03;;;13.93;;
14923;SDS011;7554;43.600;1.480;2022-12-29T07:44:14;22.43;;;13.17;;
14923;SDS011;7554;43.600;1.480;2022-12-29T07:46:41;30.17;;;13.53;;
14923;SDS011;7554;43.600;1.480;2022-12-29T07:49:09;20.27;;;13.37;;
14923;SDS011;7554;43.600;1.480;2022-12-29T07:51:38;31.17;;;14.00;;
14923;SDS011;7554;43.600;1.480;2022-12-29T07:54:05;24.73;;;13.30;;
14923;SDS011;7554;43.600;1.480;2022-12-29T07:56:33;23.17;;;13.10;;
14923;SDS011;7554;43.600;1.480;2022-12-29T07:59:00;25.43;;;13.00;;
14923;SDS011;7554;43.600;1.480;2022-12-29T08:01:28;22.80;;;12.53;;
14923;SDS011;7554;43.600;1.480;2022-12-29T08:03:55;29.67;;;11.97;;
14923;SDS011;7554;43.600;1.480;2022-12-29T08:06:23;22.63;;;11.37;;
14923;SDS011;7554;43.600;1.480;2022-12-29T08:08:51;22.03;;;11.37;;
14923;SDS011;7554;43.600;1.480;2022-12-29T08:11:21;24.00;;;11.10;;
14923;SDS011;7554;43.600;1.480;2022-12-29T08:13:49;22.00;;;11.00;;
14923;SDS011;7554;43.600;1.480;2022-12-29T08:16:17;24.40;;;11.40;;
14923;SDS011;7554;43.600;1.480;2022-12-29T08:18:44;21.07;;;11.73;;
14923;SDS011;7554;43.600;1.480;2022-12-29T08:21:12;19.93;;;11.07;;
14923;SDS011;7554;43.600;1.480;2022-12-29T08:23:39;20.90;;;10.10;;
14923;SDS011;7554;43.600;1.480;2022-12-29T08:26:09;18.97;;;10.50;;
14923;SDS011;7554;43.600;1.480;2022-12-29T08:28:37;21.70;;;10.57;;
14923;SDS011;7554;43.600;1.480;2022-12-29T08:31:04;15.17;;;10.73;;
14923;SDS011;7554;43.600;1.480;2022-12-29T08:33:32;22.53;;;11.23;;
14923;SDS011;7554;43.600;1.480;2022-12-29T08:35:59;19.80;;;10.87;;
14923;SDS011;7554;43.600;1.480;2022-12-29T08:38:28;21.30;;;10.90;;
14923;SDS011;7554;43.600;1.480;2022-12-29T08:40:56;23.90;;;10.70;;
14923;SDS011;7554;43.600;1.480;2022-12-29T08:43:26;22.57;;;11.07;;
14923;SDS011;7554;43.600;1.480;2022-12-29T08:45:54;22.73;;;10.37;;
14923;SDS011;7554;43.600;1.480;2022-12-29T08:48:22;19.50;;;10.13;;
14923;SDS011;7554;43.600;1.480;2022-12-29T08:50:49;20.23;;;9.70;;
14923;SDS011;7554;43.600;1.480;2022-12-29T08:53:17;17.87;;;10.33;;
14923;SDS011;7554;43.600;1.480;2022-12-29T08:55:45;21.87;;;9.87;;
14923;SDS011;7554;43.600;1.480;2022-12-29T08:58:13;18.40;;;10.37;;
14923;SDS011;7554;43.600;1.480;2022-12-29T09:00:43;17.00;;;9.43;;
14923;SDS011;7554;43.600;1.480;2022-12-29T09:03:10;18.93;;;9.50;;
14923;SDS011;7554;43.600;1.480;2022-12-29T09:05:38;18.33;;;9.77;;
14923;SDS011;7554;43.600;1.480;2022-12-29T09:08:05;22.23;;;10.37;;
14923;SDS011;7554;43.600;1.480;2022-12-29T09:10:33;17.50;;;9.97;;
14923;SDS011;7554;43.600;1.480;2022-12-29T09:13:00;19.87;;;9.03;;
14923;SDS011;7554;43.600;1.480;2022-12-29T09:15:28;19.30;;;9.80;;
14923;SDS011;7554;43.600;1.480;2022-12-29T09:17:57;23.50;;;9.97;;
14923;SDS011;7554;43.600;1.480;2022-12-29T09:20:24;19.63;;;9.53;;
14923;SDS011;7554;43.600;1.480;2022-12-29T09:22:51;21.60;;;9.70;;
14923;SDS011;7554;43.600;1.480;2022-12-29T09:25:19;20.10;;;9.83;;
14923;SDS011;7554;43.600;1.480;2022-12-29T09:27:49;24.10;;;9.47;;
14923;SDS011;7554;43.600;1.480;2022-12-29T09:30:18;19.17;;;9.70;;
14923;SDS011;7554;43.600;1.480;2022-12-29T09:32:47;18.37;;;8.87;;
14923;SDS011;7554;43.600;1.480;2022-12-29T09:35:16;20.93;;;9.10;;
14923;SDS011;7554;43.600;1.480;2022-12-29T09:37:44;19.77;;;10.65;;
14923;SDS011;7554;43.600;1.480;2022-12-29T09:40:27;20.23;;;9.80;;
14923;SDS011;7554;43.600;1.480;2022-12-29T09:43:03;21.93;;;9.17;;
14923;SDS011;7554;43.600;1.480;2022-12-29T09:45:40;15.53;;;8.20;;
14923;SDS011;7554;43.600;1.480;2022-12-29T09:48:12;19.00;;;8.37;;
14923;SDS011;7554;43.600;1.480;2022-12-29T09:50:46;18.97;;;8.37;;
14923;SDS011;7554;43.600;1.480;2022-12-29T09:53:17;21.63;;;8.30;;
14923;SDS011;7554;43.600;1.480;2022-12-29T09:55:51;20.13;;;8.07;;
14923;SDS011;7554;43.600;1.480;2022-12-29T09:58:21;19.67;;;6.67;;
14923;SDS011;7554;43.600;1.480;2022-12-29T10:00:56;17.37;;;8.03;;
14923;SDS011;7554;43.600;1.480;2022-12-29T10:03:32;16.53;;;7.30;;
14923;SDS011;7554;43.600;1.480;2022-12-29T10:06:11;13.80;;;8.13;;
14923;SDS011;7554;43.600;1.480;2022-12-29T10:08:44;19.90;;;8.90;;
14923;SDS011;7554;43.600;1.480;2022-12-29T10:11:19;14.20;;;7.80;;
14923;SDS011;7554;43.600;1.480;2022-12-29T10:14:04;20.83;;;8.43;;
14923;SDS011;7554;43.600;1.480;2022-12-29T10:16:43;14.73;;;7.50;;
14923;SDS011;7554;43.600;1.480;2022-12-29T10:19:20;18.20;;;8.57;;
14923;SDS011;7554;43.600;1.480;2022-12-29T10:22:07;15.37;;;8.43;;
14923;SDS011;7554;43.600;1.480;2022-12-29T10:24:43;19.37;;;8.40;;
14923;SDS011;7554;43.600;1.480;2022-12-29T10:27:13;20.53;;;8.07;;
14923;SDS011;7554;43.600;1.480;2022-12-29T10:29:48;16.83;;;7.87;;
14923;SDS011;7554;43.600;1.480;2022-12-29T10:32:22;18.93;;;7.47;;
14923;SDS011;7554;43.600;1.480;2022-12-29T10:34:54;15.63;;;7.60;;
14923;SDS011;7554;43.600;1.480;2022-12-29T10:37:29;17.37;;;7.77;;
14923;SDS011;7554;43.600;1.480;2022-12-29T10:40:01;16.10;;;7.50;;
14923;SDS011;7554;43.600;1.480;2022-12-29T10:42:39;14.77;;;6.97;;
14923;SDS011;7554;43.600;1.480;2022-12-29T10:45:12;14.07;;;7.10;;
14923;SDS011;7554;43.600;1.480;2022-12-29T10:57:01;12.77;;;6.90;;
14923;SDS011;7554;43.600;1.480;2022-12-29T10:59:35;21.30;;;7.10;;
14923;SDS011;7554;43.600;1.480;2022-12-29T11:08:30;11.67;;;6.60;;
14923;SDS011;7554;43.600;1.480;2022-12-29T11:11:02;14.00;;;6.30;;
14923;SDS011;7554;43.600;1.480;2022-12-29T11:13:32;10.53;;;6.17;;
14923;SDS011;7554;43.600;1.480;2022-12-29T11:16:01;15.20;;;6.67;;
14923;SDS011;7554;43.600;1.480;2022-12-29T11:18:32;17.67;;;6.77;;
14923;SDS011;7554;43.600;1.480;2022-12-29T11:21:03;13.67;;;7.80;;
14923;SDS011;7554;43.600;1.480;2022-12-29T11:23:33;20.87;;;7.33;;
14923;SDS011;7554;43.600;1.480;2022-12-29T11:26:06;19.43;;;7.00;;
14923;SDS011;7554;43.600;1.480;2022-12-29T11:28:42;16.37;;;7.10;;
14923;SDS011;7554;43.600;1.480;2022-12-29T11:31:15;17.43;;;6.73;;
14923;SDS011;7554;43.600;1.480;2022-12-29T11:33:43;16.43;;;6.73;;
14923;SDS011;7554;43.600;1.480;2022-12-29T11:36:11;11.50;;;5.90;;
14923;SDS011;7554;43.600;1.480;2022-12-29T11:38:46;16.80;;;5.90;;
14923;SDS011;7554;43.600;1.480;2022-12-29T11:41:19;11.70;;;5.87;;
14923;SDS011;7554;43.600;1.480;2022-12-29T11:43:50;12.60;;;6.00;;
14923;SDS011;7554;43.600;1.480;2022-12-29T11:46:20;10.97;;;6.17;;
14923;SDS011;7554;43.600;1.480;2022-12-29T11:48:50;14.10;;;5.80;;
14923;SDS011;7554;43.600;1.480;2022-12-29T11:51:21;14.63;;;6.10;;
14923;SDS011;7554;43.600;1.480;2022-12-29T11:53:54;14.87;;;6.20;;
14923;SDS011;7554;43.600;1.480;2022-12-29T11:56:32;11.43;;;5.37;;
14923;SDS011;7554;43.600;1.480;2022-12-29T12:02:09;10.10;;;5.07;;
14923;SDS011;7554;43.600;1.480;2022-12-29T12:04:54;13.77;;;5.93;;
14923;SDS011;7554;43.600;1.480;2022-12-29T12:07:34;15.73;;;5.80;;
14923;SDS011;7554;43.600;1.480;2022-12-29T12:10:19;13.77;;;5.57;;
14923;SDS011;7554;43.600;1.480;2022-12-29T12:12:56;14.23;;;5.70;;
14923;SDS011;7554;43.600;1.480;2022-12-29T12:15:31;11.00;;;5.87;;
14923;SDS011;7554;43.600;1.480;2022-12-29T12:18:08;18.80;;;6.40;;
14923;SDS011;7554;43.600;1.480;2022-12-29T12:20:44;12.87;;;5.70;;
14923;SDS011;7554;43.600;1.480;2022-12-29T12:23:18;15.70;;;5.90;;
14923;SDS011;7554;43.600;1.480;2022-12-29T12:25:56;13.13;;;4.80;;
14923;SDS011;7554;43.600;1.480;2022-12-29T12:28:34;12.17;;;5.43;;
14923;SDS011;7554;43.600;1.480;2022-12-29T12:31:06;13.00;;;5.30;;
14923;SDS011;7554;43.600;1.480;2022-12-29T12:33:45;13.17;;;6.23;;
14923;SDS011;7554;43.600;1.480;2022-12-29T12:36:21;13.63;;;5.67;;
14923;SDS011;7554;43.600;1.480;2022-12-29T12:39:10;13.90;;;4.97;;
14923;SDS011;7554;43.600;1.480;2022-12-29T12:41:48;13.37;;;5.00;;
14923;SDS011;7554;43.600;1.480;2022-12-29T12:44:24;13.50;;;5.17;;
14923;SDS011;7554;43.600;1.480;2022-12-29T12:47:06;14.63;;;5.73;;
14923;SDS011;7554;43.600;1.480;2022-12-29T12:50:04;12.20;;;5.00;;
14923;SDS011;7554;43.600;1.480;2022-12-29T12:52:51;10.47;;;4.50;;
14923;SDS011;7554;43.600;1.480;2022-12-29T12:55:47;10.07;;;5.10;;
14923;SDS011;7554;43.600;1.480;2022-12-29T12:58:24;13.33;;;5.13;;
14923;SDS011;7554;43.600;1.480;2022-12-29T13:01:02;16.47;;;5.73;;
14923;SDS011;7554;43.600;1.480;2022-12-29T13:03:44;10.40;;;5.37;;
14923;SDS011;7554;43.600;1.480;2022-12-29T13:06:26;16.93;;;5.53;;
14923;SDS011;7554;43.600;1.480;2022-12-29T13:09:10;13.40;;;5.03;;
14923;SDS011;7554;43.600;1.480;2022-12-29T13:11:59;8.60;;;4.37;;
14923;SDS011;7554;43.600;1.480;2022-12-29T13:14:40;10.27;;;4.57;;
14923;SDS011;7554;43.600;1.480;2022-12-29T13:17:18;10.50;;;4.70;;
14923;SDS011;7554;43.600;1.480;2022-12-29T13:19:53;12.93;;;4.60;;
14923;SDS011;7554;43.600;1.480;2022-12-29T13:22:28;16.00;;;5.27;;
14923;SDS011;7554;43.600;1.480;2022-12-29T13:25:06;12.20;;;4.87;;
14923;SDS011;7554;43.600;1.480;2022-12-29T13:27:49;12.23;;;4.87;;
14923;SDS011;7554;43.600;1.480;2022-12-29T13:30:21;10.23;;;4.87;;
14923;SDS011;7554;43.600;1.480;2022-12-29T13:32:56;11.40;;;4.70;;
14923;SDS011;7554;43.600;1.480;2022-12-29T13:35:41;11.57;;;4.60;;
14923;SDS011;7554;43.600;1.480;2022-12-29T13:38:21;12.17;;;4.90;;
14923;SDS011;7554;43.600;1.480;2022-12-29T13:40:52;13.53;;;4.73;;
14923;SDS011;7554;43.600;1.480;2022-12-29T13:43:23;15.73;;;4.67;;
14923;SDS011;7554;43.600;1.480;2022-12-29T13:45:57;10.40;;;4.50;;
14923;SDS011;7554;43.600;1.480;2022-12-29T13:48:34;12.23;;;4.50;;
14923;SDS011;7554;43.600;1.480;2022-12-29T13:51:06;12.13;;;5.33;;
14923;SDS011;7554;43.600;1.480;2022-12-29T13:53:39;9.00;;;4.87;;
14923;SDS011;7554;43.600;1.480;2022-12-29T13:56:17;12.67;;;5.13;;
14923;SDS011;7554;43.600;1.480;2022-12-29T13:58:53;13.23;;;5.50;;
14923;SDS011;7554;43.600;1.480;2022-12-29T14:01:27;11.13;;;4.93;;
14923;SDS011;7554;43.600;1.480;2022-12-29T14:03:58;12.10;;;5.50;;
14923;SDS011;7554;43.600;1.480;2022-12-29T14:06:35;12.57;;;5.40;;
14923;SDS011;7554;43.600;1.480;2022-12-29T14:12:01;9.23;;;4.93;;
14923;SDS011;7554;43.600;1.480;2022-12-29T14:28:45;11.03;;;5.67;;
14923;SDS011;7554;43.600;1.480;2022-12-29T14:34:27;10.30;;;4.63;;
14923;SDS011;7554;43.600;1.480;2022-12-29T14:37:17;14.37;;;5.53;;
14923;SDS011;7554;43.600;1.480;2022-12-29T14:40:02;15.53;;;5.30;;
14923;SDS011;7554;43.600;1.480;2022-12-29T14:42:35;14.57;;;5.70;;
14923;SDS011;7554;43.600;1.480;2022-12-29T14:45:06;14.10;;;5.63;;
14923;SDS011;7554;43.600;1.480;2022-12-29T14:47:51;10.13;;;5.53;;
14923;SDS011;7554;43.600;1.480;2022-12-29T14:50:21;11.20;;;5.37;;
14923;SDS011;7554;43.600;1.480;2022-12-29T14:52:52;11.33;;;4.87;;
14923;SDS011;7554;43.600;1.480;2022-12-29T14:55:32;14.07;;;5.70;;
14923;SDS011;7554;43.600;1.480;2022-12-29T14:58:06;13.10;;;6.00;;
14923;SDS011;7554;43.600;1.480;2022-12-29T15:00:41;12.20;;;5.60;;
14923;SDS011;7554;43.600;1.480;2022-12-29T15:03:12;15.97;;;6.30;;
14923;SDS011;7554;43.600;1.480;2022-12-29T15:05:44;14.27;;;5.27;;
14923;SDS011;7554;43.600;1.480;2022-12-29T15:08:16;13.07;;;5.47;;
14923;SDS011;7554;43.600;1.480;2022-12-29T15:10:47;18.27;;;6.30;;
14923;SDS011;7554;43.600;1.480;2022-12-29T15:13:32;12.90;;;6.00;;
14923;SDS011;7554;43.600;1.480;2022-12-29T15:16:03;17.00;;;6.23;;
14923;SDS011;7554;43.600;1.480;2022-12-29T15:18:32;13.80;;;6.20;;
14923;SDS011;7554;43.600;1.480;2022-12-29T15:21:11;15.20;;;5.73;;
14923;SDS011;7554;43.600;1.480;2022-12-29T15:23:41;17.53;;;6.57;;
14923;SDS011;7554;43.600;1.480;2022-12-29T15:26:11;13.20;;;7.00;;
14923;SDS011;7554;43.600;1.480;2022-12-29T15:34:55;9.70;;;6.10;;
14923;SDS011;7554;43.600;1.480;2022-12-29T15:37:25;14.20;;;7.03;;
14923;SDS011;7554;43.600;1.480;2022-12-29T15:39:55;14.53;;;6.40;;
14923;SDS011;7554;43.600;1.480;2022-12-29T15:45:34;14.47;;;6.67;;
14923;SDS011;7554;43.600;1.480;2022-12-29T15:48:03;15.23;;;6.20;;
14923;SDS011;7554;43.600;1.480;2022-12-29T15:50:32;12.50;;;6.07;;
14923;SDS011;7554;43.600;1.480;2022-12-29T15:53:02;17.07;;;6.47;;
14923;SDS011;7554;43.600;1.480;2022-12-29T15:55:40;13.93;;;6.53;;
14923;SDS011;7554;43.600;1.480;2022-12-29T15:58:18;13.00;;;6.87;;
14923;SDS011;7554;43.600;1.480;2022-12-29T16:00:49;16.53;;;8.67;;